Time;durP1;ratioP1;P1;durP2;ratioP2;P2;SDS_P1;SDS_P2;PMS_P1;PMS_P2;Temp;Humidity;BMP_temperature;BMP_pressure;BME280_temperature;BME280_humidity;BME280_pressure;Samples;Min_cycle;Max_cycle;Signal;HPM_P1;HPM_P2
2023/07/17 00:04:34;;;;;;;6.18;3.63;;;;;;;22.12;47.09;100213.84;10315303;28;20761;-53
2023/07/17 00:09:35;;;;;;;4.80;3.70;;;;;;;22.12;46.50;100208.41;10312803;28;20057;-53
2023/07/17 00:14:37;;;;;;;6.55;3.10;;;;;;;22.07;46.71;100213.59;10323028;28;21035;-53
2023/07/17 00:19:39;;;;;;;5.63;3.42;;;;;;;22.04;47.22;100205.88;10324670;28;20120;-53
2023/07/17 00:24:40;;;;;;;6.88;3.55;;;;;;;21.99;46.83;100214.59;10325594;28;20050;-53
2023/07/17 00:29:44;;;;;;;6.88;3.78;;;;;;;21.95;46.99;100224.16;10328808;28;20535;-53
2023/07/17 00:34:45;;;;;;;4.97;4.10;;;;;;;21.92;47.04;100229.13;10315900;28;20042;-53
2023/07/17 00:39:47;;;;;;;5.40;3.38;;;;;;;21.83;47.62;100217.63;10316318;28;20049;-53
2023/07/17 00:44:49;;;;;;;6.57;3.70;;;;;;;21.86;46.66;100220.78;10321758;28;20128;-53
2023/07/17 00:49:51;;;;;;;4.57;3.42;;;;;;;21.77;46.35;100238.22;10328265;28;20132;-52
2023/07/17 00:54:52;;;;;;;7.00;3.80;;;;;;;21.70;47.28;100232.75;10319405;28;20054;-52
2023/07/17 00:59:54;;;;;;;4.88;3.53;;;;;;;21.67;48.27;100238.56;10319271;28;20058;-53
2023/07/17 01:04:56;;;;;;;4.80;3.25;;;;;;;21.58;46.87;100238.91;10318381;28;20501;-52
2023/07/17 01:09:57;;;;;;;4.93;2.90;;;;;;;21.49;47.75;100230.06;10326476;28;20755;-52
2023/07/17 01:14:58;;;;;;;4.13;3.30;;;;;;;21.50;47.49;100242.59;10316019;28;20065;-53
2023/07/17 01:20:00;;;;;;;6.35;4.07;;;;;;;21.39;47.74;100246.63;10314737;28;20050;-52
2023/07/17 01:25:03;;;;;;;5.05;3.42;;;;;;;21.35;47.70;100234.53;10321061;28;20057;-52
2023/07/17 01:30:05;;;;;;;7.40;4.30;;;;;;;21.39;48.52;100241.19;10303717;28;20152;-52
2023/07/17 01:35:07;;;;;;;6.68;4.10;;;;;;;21.34;48.56;100232.84;10315968;28;20046;-53
2023/07/17 01:40:10;;;;;;;5.05;3.03;;;;;;;21.28;49.05;100223.63;10315188;28;20512;-51
2023/07/17 01:45:12;;;;;;;5.75;3.10;;;;;;;21.33;48.92;100237.44;10315458;28;20104;-52
2023/07/17 01:50:13;;;;;;;10.93;4.15;;;;;;;21.27;49.25;100240.06;10316083;28;20099;-51
2023/07/17 01:55:14;;;;;;;5.82;3.33;;;;;;;21.26;50.04;100241.06;10318946;28;20228;-54
2023/07/17 02:00:17;;;;;;;6.78;3.33;;;;;;;21.25;49.80;100244.84;10319084;28;20884;-52
2023/07/17 02:05:20;;;;;;;4.27;3.40;;;;;;;21.21;50.07;100243.53;10319206;28;20058;-52
2023/07/17 02:10:22;;;;;;;6.22;3.47;;;;;;;21.14;50.55;100248.91;10321638;28;20050;-52
2023/07/17 02:15:24;;;;;;;5.75;3.72;;;;;;;21.13;50.57;100248.03;10321767;28;20052;-51
2023/07/17 02:20:25;;;;;;;7.30;3.85;;;;;;;21.06;50.48;100240.91;10320566;28;20064;-54
2023/07/17 02:25:27;;;;;;;3.58;3.25;;;;;;;20.99;50.98;100247.06;10312020;28;20168;-52
2023/07/17 02:30:28;;;;;;;8.32;3.20;;;;;;;20.89;50.97;100261.94;10312987;28;20064;-53
2023/07/17 02:35:30;;;;;;;5.15;3.88;;;;;;;20.78;51.34;100245.19;10317532;28;20122;-51
2023/07/17 02:40:31;;;;;;;7.50;4.00;;;;;;;20.77;51.49;100250.78;10318859;28;20037;-52
2023/07/17 02:45:33;;;;;;;6.55;3.63;;;;;;;20.73;51.87;100257.59;10316318;28;20046;-52
2023/07/17 02:50:34;;;;;;;7.05;3.55;;;;;;;20.72;52.10;100261.34;10322841;28;20048;-52
2023/07/17 02:55:36;;;;;;;3.85;3.33;;;;;;;20.71;51.57;100265.06;10314572;28;20156;-53
2023/07/17 03:00:37;;;;;;;5.25;3.53;;;;;;;20.69;52.53;100269.81;10314610;28;20050;-52
2023/07/17 03:05:39;;;;;;;6.13;3.40;;;;;;;20.65;52.44;100272.91;10311830;28;20105;-53
2023/07/17 03:10:40;;;;;;;5.32;3.70;;;;;;;20.65;52.69;100272.03;10309362;28;20046;-53
2023/07/17 03:15:42;;;;;;;5.22;4.53;;;;;;;20.64;53.19;100273.06;10316748;28;20054;-53
2023/07/17 03:20:44;;;;;;;5.18;3.90;;;;;;;20.54;52.84;100275.25;10315175;28;20677;-52
2023/07/17 03:25:46;;;;;;;4.32;3.92;;;;;;;20.59;52.68;100278.22;10315349;28;20219;-52
2023/07/17 03:30:47;;;;;;;7.20;3.70;;;;;;;20.52;52.89;100285.38;10313515;28;20057;-53
2023/07/17 03:35:49;;;;;;;7.15;3.10;;;;;;;20.46;53.55;100290.53;10317267;28;20053;-52
2023/07/17 03:40:50;;;;;;;4.53;3.75;;;;;;;20.47;53.58;100297.59;10315626;28;20683;-53
2023/07/17 03:45:52;;;;;;;4.40;3.53;;;;;;;20.38;53.52;100301.44;10309388;28;20124;-52
2023/07/17 03:50:53;;;;;;;6.32;4.05;;;;;;;20.30;53.74;100304.22;10318973;28;20090;-53
2023/07/17 03:55:55;;;;;;;6.90;4.05;;;;;;;20.28;54.75;100304.44;10313954;28;20073;-53
2023/07/17 04:00:56;;;;;;;6.70;3.75;;;;;;;20.20;54.52;100296.38;10313769;28;20213;-54
2023/07/17 04:05:58;;;;;;;6.45;3.58;;;;;;;20.13;55.25;100303.56;10317263;28;20130;-55
2023/07/17 04:11:00;;;;;;;4.82;3.22;;;;;;;19.88;55.38;100275.97;10320824;28;20161;-52
2023/07/17 04:16:02;;;;;;;5.88;3.40;;;;;;;19.99;56.14;100316.03;10318318;28;20061;-52
2023/07/17 04:21:04;;;;;;;7.60;3.53;;;;;;;19.95;56.54;100325.50;10317303;28;20045;-53
2023/07/17 04:26:06;;;;;;;6.13;3.45;;;;;;;20.00;57.33;100323.13;10325423;28;20128;-52
2023/07/17 04:31:07;;;;;;;5.57;3.70;;;;;;;20.01;57.06;100332.91;10326569;28;20061;-53
2023/07/17 04:36:09;;;;;;;5.65;3.65;;;;;;;19.93;57.66;100339.19;10314695;28;20107;-53
2023/07/17 04:41:11;;;;;;;5.75;4.05;;;;;;;19.76;58.13;100335.78;10318292;28;20387;-53
2023/07/17 04:46:14;;;;;;;7.60;3.90;;;;;;;19.87;58.46;100355.31;10317122;28;20049;-53
2023/07/17 04:51:15;;;;;;;5.75;3.47;;;;;;;19.94;58.57;100365.22;10324069;28;20056;-53
2023/07/17 04:56:17;;;;;;;7.65;3.75;;;;;;;19.95;58.58;100355.22;10317927;28;22850;-53
2023/07/17 05:01:18;;;;;;;5.97;3.92;;;;;;;19.95;58.58;100357.94;10319037;28;20083;-53
2023/07/17 05:06:21;;;;;;;7.13;3.88;;;;;;;19.96;58.00;100357.75;10320677;28;20772;-53
2023/07/17 05:11:22;;;;;;;7.05;3.55;;;;;;;20.14;58.21;100376.31;10304433;28;20548;-58
2023/07/17 05:16:24;;;;;;;7.05;4.13;;;;;;;20.12;58.29;100372.97;10306844;28;20050;-58
2023/07/17 05:21:25;;;;;;;7.45;4.25;;;;;;;20.06;58.31;100354.81;10311314;28;20637;-58
2023/07/17 05:26:27;;;;;;;7.38;3.90;;;;;;;20.03;58.83;100370.56;10327789;28;20054;-58
2023/07/17 05:31:29;;;;;;;7.15;3.65;;;;;;;20.05;58.85;100371.19;10314383;28;20058;-58
2023/07/17 05:36:31;;;;;;;5.25;4.18;;;;;;;20.06;58.96;100362.91;10318770;28;20601;-61
2023/07/17 05:41:33;;;;;;;5.88;3.50;;;;;;;20.04;59.42;100374.91;10315881;28;20057;-58
2023/07/17 05:46:34;;;;;;;6.88;3.92;;;;;;;20.10;59.05;100383.16;10315196;28;20131;-60
2023/07/17 05:51:36;;;;;;;5.63;3.80;;;;;;;20.20;58.76;100392.84;10317230;28;20068;-59
2023/07/17 05:56:39;;;;;;;8.25;3.88;;;;;;;20.25;58.75;100391.28;10312561;28;20096;-58
2023/07/17 06:01:40;;;;;;;7.50;3.78;;;;;;;20.29;58.53;100380.94;10311114;28;20061;-58
2023/07/17 06:06:41;;;;;;;5.25;3.40;;;;;;;20.48;57.96;100388.50;10311198;28;20057;-56
2023/07/17 06:11:43;;;;;;;7.43;3.92;;;;;;;20.58;57.81;100380.13;10309949;28;20060;-55
2023/07/17 06:16:44;;;;;;;6.28;4.05;;;;;;;20.65;57.12;100381.06;10304378;28;20062;-57
2023/07/17 06:21:46;;;;;;;6.82;3.65;;;;;;;20.58;57.50;100390.94;10302540;28;20068;-56
2023/07/17 06:26:48;;;;;;;5.90;3.83;;;;;;;20.69;56.40;100403.19;10314941;28;20046;-57
2023/07/17 06:31:50;;;;;;;5.70;3.92;;;;;;;20.77;56.21;100384.16;10311539;28;20140;-57
2023/07/17 06:36:51;;;;;;;4.88;4.18;;;;;;;20.90;55.43;100398.91;10309559;28;20061;-56
2023/07/17 06:41:53;;;;;;;9.10;4.28;;;;;;;20.92;55.21;100392.25;10308143;28;20831;-56
2023/07/17 06:46:55;;;;;;;6.18;3.85;;;;;;;21.11;54.72;100411.66;10311442;28;20069;-56
2023/07/17 06:51:57;;;;;;;4.53;3.40;;;;;;;21.23;54.01;100414.69;10310370;28;20052;-57
2023/07/17 06:56:58;;;;;;;6.30;4.10;;;;;;;21.24;53.14;100405.56;10304357;28;20049;-57
2023/07/17 07:02:00;;;;;;;5.85;4.35;;;;;;;21.36;52.87;100409.44;10304266;28;20127;-57
2023/07/17 07:07:03;;;;;;;6.70;4.03;;;;;;;21.39;53.19;100414.47;10307737;28;20057;-58
2023/07/17 07:12:05;;;;;;;6.32;3.80;;;;;;;21.30;52.91;100399.38;10307075;28;20057;-57
2023/07/17 07:17:07;;;;;;;6.25;4.10;;;;;;;21.22;52.59;100377.84;10305860;28;20049;-58
2023/07/17 07:22:09;;;;;;;6.40;4.30;;;;;;;21.35;53.05;100405.09;10304568;28;20116;-57
2023/07/17 07:27:11;;;;;;;7.10;3.47;;;;;;;21.48;52.79;100413.38;10306149;28;20515;-57
2023/07/17 07:32:12;;;;;;;4.97;3.30;;;;;;;21.82;52.28;100419.97;10305492;28;20104;-57
2023/07/17 07:37:13;;;;;;;7.57;4.00;;;;;;;22.07;50.04;100416.88;10305729;28;20784;-57
2023/07/17 07:42:16;;;;;;;5.22;4.15;;;;;;;22.03;49.89;100411.00;10310020;28;20088;-58
2023/07/17 07:47:18;;;;;;;4.60;3.10;;;;;;;22.02;49.84;100420.19;10308569;28;20551;-57
2023/07/17 07:52:19;;;;;;;6.25;3.55;;;;;;;22.24;49.42;100418.25;10314374;28;20050;-57
2023/07/17 07:57:21;;;;;;;7.97;3.75;;;;;;;22.45;48.85;100416.59;10310358;28;20049;-57
2023/07/17 08:02:23;;;;;;;5.20;3.13;;;;;;;22.68;48.14;100401.91;10321231;28;20427;-56
2023/07/17 08:07:25;;;;;;;4.88;3.25;;;;;;;22.93;46.52;100423.97;10317797;28;20162;-57
2023/07/17 08:12:27;;;;;;;4.55;3.03;;;;;;;23.14;45.63;100412.19;10326269;28;20251;-57
2023/07/17 08:17:28;;;;;;;7.07;3.53;;;;;;;23.06;46.65;100425.91;10327700;28;20054;-59
2023/07/17 08:22:30;;;;;;;6.07;2.40;;;;;;;23.11;44.65;100429.72;10312688;28;20141;-57
2023/07/17 08:27:32;;;;;;;5.88;2.72;;;;;;;23.16;45.30;100431.00;10318362;28;20053;-58
2023/07/17 08:32:33;;;;;;;5.93;3.30;;;;;;;23.05;45.72;100435.09;10314916;28;20215;-57
2023/07/17 08:37:35;;;;;;;6.63;3.33;;;;;;;23.10;46.62;100443.50;10315298;28;20574;-57
2023/07/17 08:42:37;;;;;;;7.15;3.92;;;;;;;22.95;47.17;100449.88;10317181;28;20145;-57
2023/07/17 08:47:39;;;;;;;4.13;3.60;;;;;;;22.86;47.22;100453.78;10318385;28;20584;-57
2023/07/17 08:52:42;;;;;;;4.65;3.53;;;;;;;22.91;47.57;100432.31;10319816;28;20140;-58
2023/07/17 08:57:46;;;;;;;4.93;3.03;;;;;;;23.34;46.81;100435.88;10311158;28;20057;-57
2023/07/17 09:02:50;;;;;;;5.68;3.38;;;;;;;23.32;46.75;100424.41;10312121;28;20507;-57
2023/07/17 09:07:51;;;;;;;8.02;3.75;;;;;;;23.57;42.97;100443.69;10302858;28;20231;-57
2023/07/17 09:12:59;;;;;;;6.78;3.38;;;;;;;23.76;43.44;100429.31;10307532;28;20559;-58
2023/07/17 09:18:02;;;;;;;5.82;3.13;;;;;;;23.88;43.38;100424.13;10309695;28;20073;-57
2023/07/17 09:23:04;;;;;;;5.55;3.10;;;;;;;24.03;43.24;100415.78;10309130;28;20058;-56
2023/07/17 09:28:06;;;;;;;8.93;3.00;;;;;;;24.43;42.19;100423.94;10317882;28;20080;-57
2023/07/17 09:33:08;;;;;;;8.68;2.90;;;;;;;24.44;41.50;100417.47;10313988;28;20100;-57
2023/07/17 09:38:10;;;;;;;6.00;3.00;;;;;;;24.39;42.98;100395.47;10310904;28;20073;-57
2023/07/17 09:43:12;;;;;;;4.27;2.97;;;;;;;24.32;43.16;100414.53;10308096;28;20057;-57
2023/07/17 09:48:14;;;;;;;5.90;3.35;;;;;;;24.13;43.80;100404.50;10314960;28;20164;-58
2023/07/17 09:53:16;;;;;;;4.72;2.97;;;;;;;24.04;42.79;100412.03;10318577;28;20053;-57
2023/07/17 09:58:19;;;;;;;3.60;2.50;;;;;;;23.87;41.68;100378.13;10310452;28;20053;-58
2023/07/17 10:03:23;;;;;;;;;;;;;;;24.20;42.11;100404.50;10313195;28;20049;-57
2023/07/17 10:08:28;;;;;;;6.10;2.58;;;;;;;24.14;39.55;100400.72;10320355;28;19933;-58
2023/07/17 10:13:30;;;;;;;6.90;2.53;;;;;;;24.55;38.87;100396.94;10316103;28;20045;-58
2023/07/17 10:18:31;;;;;;;5.05;2.28;;;;;;;24.81;39.55;100396.03;10311863;28;20049;-62
2023/07/17 10:23:33;;;;;;;5.13;2.90;;;;;;;24.63;37.22;100390.44;10309105;28;20162;-59
2023/07/17 10:28:38;;;;;;;5.85;2.55;;;;;;;24.60;39.22;100396.31;10305506;28;20061;-58
2023/07/17 10:33:39;;;;;;;5.47;2.25;;;;;;;24.68;37.60;100390.63;10315713;28;20050;-58
2023/07/17 10:38:49;;;;;;;6.40;2.30;;;;;;;24.85;37.26;100396.47;10309205;28;20539;-58
2023/07/17 10:43:54;;;;;;;3.25;2.20;;;;;;;25.34;34.47;100384.16;10319999;28;20764;-60
2023/07/17 10:49:17;;;;;;;3.78;2.20;;;;;;;25.48;32.96;100389.53;10315331;28;20060;-57
2023/07/17 10:54:19;;;;;;;;;;;;;;;25.52;32.85;100386.13;10308510;28;20065;-58
2023/07/17 10:59:21;;;;;;;5.25;2.35;;;;;;;25.77;32.77;100388.88;10313904;28;19975;-59
2023/07/17 11:04:23;;;;;;;4.57;2.93;;;;;;;26.12;32.89;100390.31;10314368;28;21001;-58
2023/07/17 11:09:27;;;;;;;4.15;1.85;;;;;;;26.42;32.18;100374.13;10322941;28;20857;-58
2023/07/17 11:14:28;;;;;;;3.83;2.10;;;;;;;26.61;32.45;100382.31;10315586;28;20119;-57
2023/07/17 11:19:30;;;;;;;5.15;2.50;;;;;;;26.73;32.90;100380.53;10312063;28;20054;-58
2023/07/17 11:24:31;;;;;;;5.72;2.15;;;;;;;26.94;31.67;100367.47;10313960;28;21010;-57
2023/07/17 11:29:39;;;;;;;5.22;2.25;;;;;;;27.08;31.64;100369.00;10316047;28;20063;-57
2023/07/17 11:34:41;;;;;;;3.55;1.70;;;;;;;27.15;31.46;100358.78;10313770;28;20176;-60
2023/07/17 11:39:43;;;;;;;4.18;2.05;;;;;;;27.39;32.16;100358.91;10316423;28;20041;-56
2023/07/17 11:44:45;;;;;;;3.47;2.10;;;;;;;27.07;30.49;100358.25;10313442;28;20045;-57
2023/07/17 11:49:46;;;;;;;3.28;1.90;;;;;;;26.72;32.34;100361.63;10314565;28;20195;-58
2023/07/17 11:54:47;;;;;;;5.88;1.95;;;;;;;26.65;32.47;100367.16;10311262;28;20054;-58
2023/07/17 12:00:03;;;;;;;5.88;1.70;;;;;;;26.88;31.82;100350.09;10313214;28;20061;-57
2023/07/17 12:05:05;;;;;;;5.65;1.85;;;;;;;27.14;31.40;100339.88;10310739;28;20143;-56
2023/07/17 12:10:08;;;;;;;3.17;1.50;;;;;;;27.40;30.91;100346.06;10311162;28;20145;-57
2023/07/17 12:15:10;;;;;;;3.72;1.50;;;;;;;27.38;32.06;100340.84;10314186;28;20080;-57
2023/07/17 12:20:15;;;;;;;4.77;1.47;;;;;;;27.64;30.15;100349.72;10312213;28;20060;-57
2023/07/17 12:25:17;;;;;;;4.75;1.67;;;;;;;27.52;31.72;100347.78;10307433;28;20203;-57
2023/07/17 12:30:21;;;;;;;3.28;1.42;;;;;;;27.49;30.58;100351.00;10313972;28;20187;-57
2023/07/17 12:35:23;;;;;;;3.92;1.73;;;;;;;27.49;30.43;100348.25;10308519;28;20140;-56
2023/07/17 12:40:25;;;;;;;3.53;2.65;;;;;;;27.40;30.71;100346.94;10307894;28;20749;-58
2023/07/17 12:45:26;;;;;;;4.07;1.73;;;;;;;27.17;29.60;100347.63;10315072;28;20061;-57
2023/07/17 12:50:30;;;;;;;6.47;2.15;;;;;;;26.92;30.65;100324.00;10319338;28;20296;-59
2023/07/17 12:55:31;;;;;;;2.90;1.70;;;;;;;27.01;31.86;100351.84;10319045;28;20132;-58
2023/07/17 13:00:33;;;;;;;2.50;1.40;;;;;;;27.14;31.16;100339.88;10319320;28;20045;-58
2023/07/17 13:05:34;;;;;;;3.58;1.67;;;;;;;26.99;31.30;100335.69;10318738;28;20046;-61
2023/07/17 13:10:36;;;;;;;5.35;2.60;;;;;;;27.03;31.11;100336.06;10320809;28;20042;-58
2023/07/17 13:15:38;;;;;;;4.00;2.35;;;;;;;26.80;31.97;100321.22;10319409;28;20164;-56
2023/07/17 13:20:39;;;;;;;5.97;2.17;;;;;;;27.00;30.96;100325.59;10317958;28;20152;-58
2023/07/17 13:25:41;;;;;;;3.00;1.60;;;;;;;26.77;31.68;100338.06;10313939;28;21412;-57
2023/07/17 13:30:42;;;;;;;10.70;2.33;;;;;;;26.69;31.14;100335.63;10311301;28;20827;-57
2023/07/17 13:36:04;;;;;;;3.70;1.67;;;;;;;26.66;31.37;100324.31;10315453;28;20093;-60
2023/07/17 13:41:12;;;;;;;5.38;1.90;;;;;;;26.64;31.49;100338.19;10314258;28;20465;-59
2023/07/17 13:46:14;;;;;;;4.68;2.00;;;;;;;26.64;31.10;100332.72;10315898;28;20061;-57
2023/07/17 13:51:15;;;;;;;4.07;1.83;;;;;;;26.66;31.83;100336.03;10321293;28;20037;-58
2023/07/17 13:56:18;;;;;;;5.43;1.70;;;;;;;26.76;31.34;100336.38;10315214;28;20050;-57
2023/07/17 14:01:22;;;;;;;2.58;1.40;;;;;;;26.72;31.12;100323.41;10319365;28;20049;-58
2023/07/17 14:06:24;;;;;;;4.45;1.70;;;;;;;26.70;29.98;100320.91;10318083;28;20049;-57
2023/07/17 14:11:26;;;;;;;5.95;1.98;;;;;;;26.86;31.23;100332.28;10314982;28;20054;-57
2023/07/17 14:16:30;;;;;;;6.25;1.73;;;;;;;26.89;29.58;100329.94;10316387;28;20623;-58
2023/07/17 14:21:32;;;;;;;2.78;1.50;;;;;;;26.90;30.33;100319.84;10312846;28;20769;-58
2023/07/17 14:26:34;;;;;;;2.97;1.30;;;;;;;26.78;30.16;100300.66;10312704;28;20091;-57
2023/07/17 14:31:35;;;;;;;3.67;1.50;;;;;;;26.82;30.46;100321.00;10308540;28;21102;-57
2023/07/17 14:36:37;;;;;;;2.10;1.27;;;;;;;26.70;30.13;100304.53;10314676;28;20118;-58
2023/07/17 14:41:39;;;;;;;3.25;1.42;;;;;;;26.70;30.38;100304.53;10314162;28;20486;-60
2023/07/17 14:46:40;;;;;;;3.25;1.17;;;;;;;26.69;30.72;100302.88;10312561;28;20122;-59
2023/07/17 14:51:42;;;;;;;3.10;1.67;;;;;;;26.75;30.18;100301.97;10312930;28;20511;-58
2023/07/17 14:56:44;;;;;;;2.15;1.30;;;;;;;26.71;30.25;100316.28;10317785;28;20061;-59
2023/07/17 15:01:46;;;;;;;2.03;1.17;;;;;;;26.67;30.32;100283.16;10308602;28;20061;-57
2023/07/17 15:06:47;;;;;;;2.93;1.53;;;;;;;26.72;30.39;100291.50;10306402;28;20551;-58
2023/07/17 15:11:49;;;;;;;2.95;1.75;;;;;;;26.75;29.61;100301.97;10309306;28;20129;-58
2023/07/17 15:16:51;;;;;;;2.78;1.42;;;;;;;26.83;29.83;100302.69;10314291;28;20064;-58
2023/07/17 15:21:52;;;;;;;3.20;1.30;;;;;;;26.90;29.68;100298.84;10308316;28;20105;-58
2023/07/17 15:26:54;;;;;;;4.07;1.60;;;;;;;26.89;30.01;100310.81;10308014;28;20175;-56
2023/07/17 15:31:56;;;;;;;2.85;1.55;;;;;;;26.70;29.56;100301.81;10312193;28;20080;-57
2023/07/17 15:36:57;;;;;;;4.05;1.23;;;;;;;26.60;30.10;100298.75;10307840;28;20194;-58
2023/07/17 15:41:59;;;;;;;3.03;1.30;;;;;;;26.66;30.15;100311.47;10312412;28;20065;-58
2023/07/17 15:47:01;;;;;;;7.03;1.60;;;;;;;26.61;30.08;100306.72;10309708;28;20065;-57
2023/07/17 15:52:03;;;;;;;3.70;1.42;;;;;;;26.65;30.23;100312.56;10308160;28;20057;-58
2023/07/17 15:57:05;;;;;;;4.28;1.77;;;;;;;26.57;29.54;100313.72;10310076;28;20054;-59
2023/07/17 16:02:06;;;;;;;3.07;1.23;;;;;;;26.41;30.16;100300.66;10305172;28;20848;-57
2023/07/17 16:07:08;;;;;;;3.47;1.15;;;;;;;26.49;29.17;100321.34;10307316;28;20045;-58
2023/07/17 16:12:10;;;;;;;3.15;1.77;;;;;;;26.41;30.11;100323.31;10308781;28;20096;-58
2023/07/17 16:17:11;;;;;;;4.68;1.50;;;;;;;26.26;30.48;100309.22;10314649;28;20557;-56
2023/07/17 16:22:13;;;;;;;3.03;1.50;;;;;;;26.27;30.53;100316.31;10313326;28;20052;-57
2023/07/17 16:27:15;;;;;;;1.98;1.17;;;;;;;26.06;30.17;100309.41;10320734;28;20054;-56
2023/07/17 16:32:16;;;;;;;3.10;1.38;;;;;;;26.15;29.97;100318.97;10312956;28;20053;-56
2023/07/17 16:37:18;;;;;;;3.33;1.25;;;;;;;26.09;30.33;100314.41;10316280;28;20081;-56
2023/07/17 16:42:19;;;;;;;2.90;1.67;;;;;;;26.13;29.74;100325.72;10315190;28;20785;-56
2023/07/17 16:47:21;;;;;;;2.58;1.58;;;;;;;26.01;30.47;100326.44;10312393;28;20054;-56
2023/07/17 16:52:22;;;;;;;3.33;1.35;;;;;;;26.00;30.71;100326.66;10312586;28;20057;-56
2023/07/17 16:57:24;;;;;;;2.60;1.40;;;;;;;26.12;30.80;100330.31;10318387;28;20706;-56
2023/07/17 17:02:28;;;;;;;1.70;0.90;;;;;;;26.14;30.25;100339.13;10319500;28;20128;-58
2023/07/17 17:07:30;;;;;;;5.88;1.25;;;;;;;26.09;30.44;100342.53;10316986;28;20054;-55
2023/07/17 17:12:31;;;;;;;3.55;1.92;;;;;;;26.09;30.70;100349.84;10318812;28;21781;-57
2023/07/17 17:17:34;;;;;;;1.88;1.17;;;;;;;26.00;30.23;100352.06;10315986;28;20058;-55
2023/07/17 17:22:36;;;;;;;3.10;1.48;;;;;;;25.98;30.42;100356.03;10309848;28;20049;-55
2023/07/17 17:27:38;;;;;;;2.03;1.08;;;;;;;25.94;30.17;100358.34;10312487;28;20058;-56
2023/07/17 17:32:40;;;;;;;1.85;1.30;;;;;;;25.89;30.13;100366.38;10307707;28;20081;-56
2023/07/17 17:37:41;;;;;;;2.20;1.05;;;;;;;25.81;30.71;100377.56;10311124;28;20057;-56
2023/07/17 17:42:43;;;;;;;2.70;1.55;;;;;;;25.73;30.47;100370.47;10312657;28;20061;-56
2023/07/17 17:47:45;;;;;;;1.55;1.20;;;;;;;25.70;30.98;100366.31;10309892;28;20054;-56
2023/07/17 17:52:46;;;;;;;2.78;1.25;;;;;;;25.69;30.59;100370.09;10310242;28;20436;-56
2023/07/17 17:57:48;;;;;;;1.65;1.10;;;;;;;25.63;30.95;100373.69;10318125;28;20115;-57
2023/07/17 18:02:49;;;;;;;2.05;1.35;;;;;;;25.62;30.91;100377.47;10316149;28;20939;-57
2023/07/17 18:07:51;;;;;;;1.35;0.90;;;;;;;25.59;31.32;100375.19;10312945;28;20330;-57
2023/07/17 18:12:52;;;;;;;2.78;1.10;;;;;;;25.54;31.06;100377.75;10308555;28;20089;-55
2023/07/17 18:17:56;;;;;;;2.38;1.20;;;;;;;25.45;31.02;100389.97;10311155;28;20723;-56
2023/07/17 18:22:58;;;;;;;4.03;1.23;;;;;;;25.39;30.87;100392.50;10312905;28;20046;-55
2023/07/17 18:28:00;;;;;;;2.55;0.73;;;;;;;25.33;31.23;100403.44;10311648;28;20180;-55
2023/07/17 18:33:02;;;;;;;2.97;1.05;;;;;;;25.23;31.04;100403.84;10312636;28;20726;-55
2023/07/17 18:38:03;;;;;;;2.50;1.00;;;;;;;25.17;31.11;100411.00;10313744;28;20038;-56
2023/07/17 18:43:05;;;;;;;2.03;0.77;;;;;;;25.18;31.33;100417.31;10316273;28;20467;-54
2023/07/17 18:48:06;;;;;;;2.80;1.00;;;;;;;25.14;31.14;100426.94;10310280;28;20160;-55
2023/07/17 18:53:08;;;;;;;2.00;0.70;;;;;;;25.01;31.56;100434.13;10310359;28;20060;-55
2023/07/17 18:58:10;;;;;;;1.63;0.70;;;;;;;24.90;31.56;100426.59;10310381;28;20121;-56
2023/07/17 19:03:12;;;;;;;4.65;0.90;;;;;;;24.88;31.48;100450.50;10311563;28;20057;-56
2023/07/17 19:08:15;;;;;;;2.08;0.70;;;;;;;24.84;31.94;100446.50;10309326;28;20058;-56
2023/07/17 19:13:17;;;;;;;2.00;0.82;;;;;;;24.67;31.97;100444.25;10309040;28;20531;-55
2023/07/17 19:18:19;;;;;;;2.53;1.23;;;;;;;24.66;32.59;100458.88;10307598;28;20053;-55
2023/07/17 19:23:21;;;;;;;4.00;1.00;;;;;;;24.65;32.03;100469.97;10310866;28;20483;-55
2023/07/17 19:28:22;;;;;;;1.10;0.63;;;;;;;24.47;32.74;100444.25;10307863;28;20563;-55
2023/07/17 19:33:24;;;;;;;2.00;0.95;;;;;;;24.46;33.13;100477.94;10307806;28;20061;-56
2023/07/17 19:38:25;;;;;;;1.60;0.93;;;;;;;24.31;33.19;100471.88;10306800;28;20058;-56
2023/07/17 19:43:27;;;;;;;2.60;0.98;;;;;;;24.32;33.23;100487.13;10310712;28;20058;-57
2023/07/17 19:48:29;;;;;;;1.80;0.75;;;;;;;24.27;33.69;100482.31;10316440;28;20064;-57
2023/07/17 19:53:30;;;;;;;2.10;1.15;;;;;;;24.33;34.41;100503.25;10307411;28;20141;-57
2023/07/17 19:58:32;;;;;;;2.95;1.20;;;;;;;24.20;34.39;100494.22;10320898;28;20054;-57
2023/07/17 20:03:33;;;;;;;2.53;1.10;;;;;;;24.10;34.17;100502.81;10324572;28;20054;-57
2023/07/17 20:08:35;;;;;;;3.70;1.35;;;;;;;24.07;34.07;100516.81;10317150;28;20061;-57
2023/07/17 20:13:37;;;;;;;2.13;0.70;;;;;;;24.06;34.47;100539.59;10319422;28;20054;-57
2023/07/17 20:18:38;;;;;;;4.88;1.05;;;;;;;23.90;35.02;100544.38;10321456;28;20069;-60
2023/07/17 20:23:39;;;;;;;2.03;1.23;;;;;;;23.82;35.70;100550.81;10318026;28;20081;-57
2023/07/17 20:28:41;;;;;;;3.35;1.30;;;;;;;23.70;36.02;100567.91;10315609;28;20066;-57
2023/07/17 20:33:43;;;;;;;3.15;1.40;;;;;;;23.67;37.03;100574.56;10321347;28;20054;-57
2023/07/17 20:38:45;;;;;;;3.72;1.40;;;;;;;23.69;37.41;100582.50;10316658;28;20109;-56
2023/07/17 20:43:47;;;;;;;3.53;1.70;;;;;;;23.63;37.89;100579.56;10317857;28;20119;-57
2023/07/17 20:48:48;;;;;;;5.57;2.65;;;;;;;23.50;38.50;100601.22;10314347;28;20062;-57
2023/07/17 20:53:50;;;;;;;2.20;1.80;;;;;;;23.39;38.98;100596.34;10316591;28;20061;-56
2023/07/17 20:58:53;;;;;;;3.28;1.80;;;;;;;23.23;39.26;100606.50;10314947;28;20818;-57
2023/07/17 21:03:57;;;;;;;;;;;;;;;23.01;40.14;100615.69;10319529;28;20410;-56
2023/07/17 21:08:59;;;;;;;5.43;1.83;;;;;;;22.89;40.08;100632.50;10312557;28;19925;-56
2023/07/17 21:14:00;;;;;;;4.57;2.10;;;;;;;22.93;40.55;100625.66;10315491;28;20412;-56
2023/07/17 21:19:02;;;;;;;4.25;1.90;;;;;;;22.85;40.87;100625.81;10316328;28;20078;-52
2023/07/17 21:24:04;;;;;;;4.10;2.50;;;;;;;22.92;41.87;100636.72;10320484;28;20512;-56
2023/07/17 21:29:07;;;;;;;3.72;1.92;;;;;;;22.93;41.80;100650.09;10326883;28;20196;-58
2023/07/17 21:34:08;;;;;;;3.90;2.42;;;;;;;22.56;42.87;100654.75;10335840;28;20135;-56
2023/07/17 21:39:10;;;;;;;6.07;3.17;;;;;;;22.67;42.88;100660.69;10323037;28;20528;-56
2023/07/17 21:44:11;;;;;;;7.70;2.17;;;;;;;22.65;43.25;100652.72;10322593;28;20077;-56
2023/07/17 21:49:13;;;;;;;4.95;2.53;;;;;;;22.38;43.38;100671.47;10317660;28;20189;-57
2023/07/17 21:54:14;;;;;;;5.20;2.50;;;;;;;22.41;43.43;100662.94;10321460;28;20038;-57
2023/07/17 21:59:16;;;;;;;7.57;1.98;;;;;;;22.49;43.74;100675.53;10322225;28;20607;-57
2023/07/17 22:04:17;;;;;;;3.55;2.03;;;;;;;22.37;43.83;100677.91;10321296;28;20653;-57
2023/07/17 22:09:20;;;;;;;5.07;2.50;;;;;;;22.33;44.32;100683.91;10322138;28;20168;-57
2023/07/17 22:14:22;;;;;;;3.97;2.40;;;;;;;22.30;43.79;100704.06;10316725;28;20046;-57
2023/07/17 22:19:23;;;;;;;5.38;2.80;;;;;;;22.20;44.37;100709.81;10322295;28;20073;-57
2023/07/17 22:24:25;;;;;;;4.47;2.40;;;;;;;22.14;44.51;100699.69;10319430;28;20050;-57
2023/07/17 22:29:26;;;;;;;4.28;2.13;;;;;;;22.14;44.36;100704.28;10326018;28;20065;-57
2023/07/17 22:34:28;;;;;;;3.65;2.58;;;;;;;22.00;44.94;100697.84;10316236;28;20180;-57
2023/07/17 22:39:29;;;;;;;5.90;2.83;;;;;;;22.07;44.86;100712.34;10314095;28;20057;-58
2023/07/17 22:44:31;;;;;;;4.28;2.50;;;;;;;21.95;45.71;100716.53;10318030;28;20052;-57
2023/07/17 22:49:32;;;;;;;6.85;3.15;;;;;;;21.88;45.66;100717.28;10317945;28;20965;-57
2023/07/17 22:54:36;;;;;;;4.65;2.63;;;;;;;21.81;45.89;100719.06;10316992;28;20131;-57
2023/07/17 22:59:38;;;;;;;2.88;2.38;;;;;;;21.76;46.09;100728.78;10323639;28;20045;-57
2023/07/17 23:04:39;;;;;;;5.38;2.70;;;;;;;21.70;46.12;100731.19;10319024;28;20053;-56
2023/07/17 23:09:41;;;;;;;4.97;2.53;;;;;;;21.67;46.45;100730.72;10321374;28;20064;-57